createdAt,value
2022-11-10T00:01:09.433Z,5.35
2022-11-10T00:03:38.351Z,5.33
2022-11-10T00:06:06.786Z,5.34
2022-11-10T00:08:34.026Z,5.28
2022-11-10T00:11:07.762Z,5.29
2022-11-10T00:13:57.162Z,5.32
2022-11-10T00:16:42.999Z,5.33
2022-11-10T00:19:10.132Z,5.31
2022-11-10T00:21:38.115Z,5.32
2022-11-10T00:24:05.496Z,5.26
2022-11-10T00:26:34.934Z,5.18
2022-11-10T00:29:02.024Z,5.11
2022-11-10T00:31:29.101Z,5.14
2022-11-10T00:33:56.588Z,5.10
2022-11-10T00:36:23.922Z,5.15
2022-11-10T00:38:52.047Z,5.17
2022-11-10T00:41:18.937Z,5.17
2022-11-10T00:43:46.097Z,5.12
2022-11-10T00:46:13.208Z,5.15
2022-11-10T00:48:40.439Z,5.17
2022-11-10T00:51:10.128Z,5.12
2022-11-10T00:53:37.025Z,5.07
2022-11-10T00:56:04.087Z,5.03
2022-11-10T00:58:31.023Z,5.06
2022-11-10T01:01:05.705Z,4.99
2022-11-10T01:03:33.420Z,4.99
2022-11-10T01:06:12.323Z,4.97
2022-11-10T01:08:40.575Z,4.94
2022-11-10T01:11:19.101Z,4.92
2022-11-10T01:13:46.665Z,4.85
2022-11-10T01:16:25.059Z,4.88
2022-11-10T01:18:54.707Z,4.82
2022-11-10T01:21:22.659Z,4.82
2022-11-10T01:23:50.143Z,4.78
2022-11-10T01:26:17.882Z,4.79
2022-11-10T01:28:45.861Z,4.79
2022-11-10T01:31:13.856Z,4.78
2022-11-10T01:33:41.192Z,4.72
2022-11-10T01:36:09.582Z,4.62
2022-11-10T01:38:38.994Z,4.55
2022-11-10T01:41:08.289Z,4.55
2022-11-10T01:43:35.527Z,4.58
2022-11-10T01:46:02.526Z,4.55
2022-11-10T01:48:33.258Z,4.55
2022-11-10T01:51:09.573Z,4.52
2022-11-10T01:53:43.509Z,4.46
2022-11-10T01:56:12.691Z,4.47
2022-11-10T01:58:45.159Z,4.50
2022-11-10T02:01:12.258Z,4.52
2022-11-10T02:03:50.206Z,4.49
2022-11-10T02:06:17.834Z,4.51
2022-11-10T02:08:45.923Z,4.48
2022-11-10T02:11:16.462Z,4.45
2022-11-10T02:13:43.648Z,4.45
2022-11-10T02:16:11.322Z,4.42
2022-11-10T02:18:38.577Z,4.41
2022-11-10T02:21:07.505Z,4.45
2022-11-10T02:23:39.433Z,4.41
2022-11-10T02:26:07.763Z,4.37
2022-11-10T02:28:37.517Z,4.32
2022-11-10T02:31:05.971Z,4.34
2022-11-10T02:33:32.908Z,4.38
2022-11-10T02:35:59.763Z,4.33
2022-11-10T02:38:26.708Z,4.30
2022-11-10T02:40:54.652Z,4.28
2022-11-10T02:43:21.940Z,4.25
2022-11-10T02:45:49.197Z,4.26
2022-11-10T02:48:17.124Z,4.24
2022-11-10T02:50:44.639Z,4.17
2022-11-10T02:53:11.592Z,4.10
2022-11-10T02:55:38.727Z,4.09
2022-11-10T02:58:06.225Z,4.15
2022-11-10T03:00:33.278Z,4.17
2022-11-10T03:03:05.312Z,4.14
2022-11-10T03:05:32.888Z,4.16
2022-11-10T03:08:02.054Z,4.18
2022-11-10T03:10:30.564Z,4.12
2022-11-10T03:13:00.390Z,4.13
2022-11-10T03:15:28.824Z,4.11
2022-11-10T03:17:56.620Z,4.08
2022-11-10T03:20:23.679Z,4.02
2022-11-10T03:22:50.727Z,4.02
2022-11-10T03:25:17.904Z,4.00
2022-11-10T03:27:45.566Z,3.95
2022-11-10T03:30:12.845Z,3.92
2022-11-10T03:32:39.782Z,3.93
2022-11-10T03:35:07.059Z,3.90
2022-11-10T03:37:33.948Z,3.93
2022-11-10T03:40:00.972Z,3.91
2022-11-10T03:42:27.887Z,3.86
2022-11-10T03:44:54.855Z,3.87
2022-11-10T03:47:21.971Z,3.86
2022-11-10T03:49:49.135Z,3.85
2022-11-10T03:52:16.713Z,3.87
2022-11-10T03:54:43.683Z,3.87
2022-11-10T03:57:11.275Z,3.83
2022-11-10T03:59:38.189Z,3.80
2022-11-10T04:02:05.252Z,3.75
2022-11-10T04:04:50.490Z,3.73
2022-11-10T04:07:36.246Z,3.73
2022-11-10T04:10:04.015Z,3.75
2022-11-10T04:12:49.685Z,3.76
2022-11-10T04:15:35.386Z,3.70
2022-11-10T04:18:20.930Z,3.72
2022-11-10T04:20:48.908Z,3.69
2022-11-10T04:23:28.763Z,3.67
2022-11-10T04:26:17.168Z,3.55
2022-11-10T04:28:45.818Z,3.58
2022-11-10T04:31:14.024Z,3.58
2022-11-10T04:33:42.306Z,3.61
2022-11-10T04:36:11.533Z,3.59
2022-11-10T04:38:39.201Z,3.51
2022-11-10T04:41:06.768Z,3.57
2022-11-10T04:43:34.480Z,3.50
2022-11-10T04:46:02.178Z,3.41
2022-11-10T04:48:30.780Z,3.42
2022-11-10T04:50:58.126Z,3.43
2022-11-10T04:53:25.604Z,3.44
2022-11-10T04:55:53.998Z,3.41
2022-11-10T04:58:21.103Z,3.42
2022-11-10T05:00:48.362Z,3.36
2022-11-10T05:03:15.717Z,3.38
2022-11-10T05:05:43.002Z,3.40
2022-11-10T05:08:10.547Z,3.39
2022-11-10T05:10:38.773Z,3.39
2022-11-10T05:13:06.387Z,3.43
2022-11-10T05:15:33.813Z,3.42
2022-11-10T05:18:01.484Z,3.36
2022-11-10T05:20:28.782Z,3.38
2022-11-10T05:23:14.052Z,3.42
2022-11-10T05:25:42.705Z,3.38
2022-11-10T05:28:11.868Z,3.37
2022-11-10T05:30:39.944Z,3.40
2022-11-10T05:33:06.752Z,3.45
2022-11-10T05:35:34.165Z,3.45
2022-11-10T05:38:01.393Z,3.45
2022-11-10T05:40:28.726Z,3.44
2022-11-10T05:42:55.829Z,3.47
2022-11-10T05:45:25.026Z,3.52
2022-11-10T05:47:52.674Z,3.55
2022-11-10T05:50:22.059Z,3.48
2022-11-10T05:52:51.510Z,3.56
2022-11-10T05:55:20.861Z,3.62
2022-11-10T05:57:49.461Z,3.68
2022-11-10T06:00:18.914Z,3.75
2022-11-10T06:02:45.891Z,3.76
2022-11-10T06:05:13.200Z,3.83
2022-11-10T06:07:40.119Z,3.88
2022-11-10T06:10:07.601Z,3.92
2022-11-10T06:12:34.637Z,4.01
2022-11-10T06:15:03.025Z,4.05
2022-11-10T06:17:30.082Z,4.12
2022-11-10T06:19:56.953Z,4.15
2022-11-10T06:22:23.871Z,4.21
2022-11-10T06:24:50.742Z,4.24
2022-11-10T06:27:17.769Z,4.31
2022-11-10T06:29:44.634Z,4.38
2022-11-10T06:32:12.116Z,4.46
2022-11-10T06:34:39.082Z,4.53
2022-11-10T06:37:06.152Z,4.58
2022-11-10T06:39:33.623Z,4.64
2022-11-10T06:42:00.602Z,4.76
2022-11-10T06:44:27.636Z,4.89
2022-11-10T06:46:54.538Z,5.00
2022-11-10T06:49:21.491Z,5.14
2022-11-10T06:51:48.469Z,5.29
2022-11-10T06:54:15.402Z,5.43
2022-11-10T06:56:42.388Z,5.63
2022-11-10T06:59:09.357Z,5.74
2022-11-10T07:01:36.496Z,5.97
2022-11-10T07:04:19.392Z,6.19
2022-11-10T07:06:48.104Z,6.37
2022-11-10T07:09:15.618Z,6.53
2022-11-10T07:11:43.197Z,6.72
2022-11-10T07:14:10.420Z,6.96
2022-11-10T07:16:37.646Z,7.15
2022-11-10T07:19:04.603Z,7.32
2022-11-10T07:21:32.107Z,7.55
2022-11-10T07:23:58.990Z,7.74
2022-11-10T07:26:26.070Z,7.94
2022-11-10T07:28:53.161Z,8.15
2022-11-10T07:31:20.106Z,8.34
2022-11-10T07:33:53.357Z,8.51
2022-11-10T07:36:21.988Z,8.71
2022-11-10T07:38:50.438Z,8.90
2022-11-10T07:41:17.414Z,9.11
2022-11-10T07:43:44.360Z,9.25
2022-11-10T07:46:11.690Z,9.35
2022-11-10T07:48:38.639Z,9.59
2022-11-10T07:51:05.901Z,9.80
2022-11-10T07:53:32.895Z,9.99
2022-11-10T07:55:59.893Z,10.12
2022-11-10T07:58:26.852Z,10.32
2022-11-10T08:00:54.051Z,10.47
2022-11-10T08:03:22.689Z,10.62
2022-11-10T08:05:50.316Z,10.84
2022-11-10T08:08:17.916Z,10.97
2022-11-10T08:10:45.112Z,11.13
2022-11-10T08:13:13.396Z,11.28
2022-11-10T08:15:41.325Z,11.38
2022-11-10T08:18:23.583Z,11.57
2022-11-10T08:20:50.573Z,11.72
2022-11-10T08:23:18.230Z,11.86
2022-11-10T08:25:48.131Z,11.91
2022-11-10T08:28:17.464Z,12.06
2022-11-10T08:30:46.137Z,12.15
2022-11-10T08:33:14.884Z,12.24
2022-11-10T08:35:44.689Z,12.41
2022-11-10T08:38:14.251Z,12.58
2022-11-10T08:40:41.746Z,12.73
2022-11-10T08:43:09.872Z,12.86
2022-11-10T08:45:38.500Z,12.95
2022-11-10T08:48:11.098Z,13.12
2022-11-10T08:50:38.182Z,13.27
2022-11-10T08:53:07.228Z,13.40
2022-11-10T08:55:34.653Z,13.55
2022-11-10T08:58:03.668Z,13.72
2022-11-10T09:00:32.527Z,13.86
2022-11-10T09:03:24.856Z,13.98
2022-11-10T09:05:58.014Z,14.10
2022-11-10T09:08:25.967Z,14.22
2022-11-10T09:10:53.101Z,14.32
2022-11-10T09:13:29.042Z,14.43
2022-11-10T09:16:04.826Z,14.52
2022-11-10T09:18:32.433Z,14.65
2022-11-10T09:20:59.650Z,14.75
2022-11-10T09:23:27.421Z,14.82
2022-11-10T09:25:55.795Z,15.02
2022-11-10T09:28:23.801Z,15.09
2022-11-10T09:30:52.264Z,15.16
2022-11-10T09:33:19.849Z,15.28
2022-11-10T09:35:47.406Z,15.35
2022-11-10T09:38:14.739Z,15.41
2022-11-10T09:41:03.848Z,15.51
2022-11-10T09:43:38.044Z,15.64
2022-11-10T09:46:16.620Z,15.73
2022-11-10T09:48:50.977Z,15.81
2022-11-10T09:51:20.127Z,15.93
2022-11-10T09:54:21.722Z,15.97
2022-11-10T09:56:50.888Z,16.07
2022-11-10T09:59:26.935Z,16.19
2022-11-10T10:02:05.697Z,16.30
2022-11-10T10:04:35.443Z,16.39
2022-11-10T10:07:12.236Z,16.48
2022-11-10T10:09:39.165Z,16.55
2022-11-10T10:12:47.122Z,16.62
2022-11-10T10:15:16.850Z,16.72
2022-11-10T10:17:58.148Z,16.78
2022-11-10T10:20:38.818Z,16.74
2022-11-10T10:23:14.875Z,16.93
2022-11-10T10:25:43.603Z,17.05
2022-11-10T10:28:23.960Z,17.14
2022-11-10T10:30:51.344Z,17.20
2022-11-10T10:33:23.787Z,17.24
2022-11-10T10:35:51.343Z,17.33
2022-11-10T10:38:31.326Z,17.43
2022-11-10T10:41:04.262Z,17.54
2022-11-10T10:43:31.272Z,17.61
2022-11-10T10:46:12.735Z,17.68
2022-11-10T10:48:39.897Z,17.70
2022-11-10T10:51:07.103Z,17.80
2022-11-10T10:53:46.736Z,17.85
2022-11-10T10:56:31.584Z,17.91
2022-11-10T10:59:04.295Z,17.97
2022-11-10T11:01:33.858Z,17.99
2022-11-10T11:04:06.183Z,18.04
2022-11-10T11:06:35.191Z,18.15
2022-11-10T11:09:16.756Z,18.22
2022-11-10T11:11:46.476Z,18.28
2022-11-10T11:14:29.767Z,18.36
2022-11-10T11:16:59.393Z,18.48
2022-11-10T11:19:33.154Z,18.54
2022-11-10T11:22:42.059Z,18.55
2022-11-10T11:25:35.201Z,18.61
2022-11-10T11:28:53.274Z,18.69
2022-11-10T11:31:48.761Z,18.72
2022-11-10T11:34:26.731Z,18.71
2022-11-10T11:37:19.458Z,18.69
2022-11-10T11:40:01.977Z,18.73
2022-11-10T11:42:50.551Z,18.79
2022-11-10T11:45:26.297Z,18.85
2022-11-10T11:48:29.547Z,18.96
2022-11-10T11:51:28.579Z,19.10
2022-11-10T11:54:18.319Z,19.10
2022-11-10T11:56:48.110Z,19.10
2022-11-10T11:59:17.776Z,19.11
2022-11-10T12:02:09.751Z,19.14
2022-11-10T12:04:39.957Z,19.22
2022-11-10T12:07:06.889Z,19.20
2022-11-10T12:09:48.282Z,19.28
2022-11-10T12:12:18.214Z,19.28
2022-11-10T12:15:00.068Z,19.21
2022-11-10T12:17:33.044Z,19.04
2022-11-10T12:20:21.002Z,18.93
2022-11-10T12:23:05.933Z,18.91
2022-11-10T12:26:12.976Z,18.81
2022-11-10T12:28:45.973Z,18.82
2022-11-10T12:31:18.649Z,18.90
2022-11-10T12:33:51.550Z,18.92
2022-11-10T12:36:22.419Z,18.86
2022-11-10T12:39:17.524Z,18.86
2022-11-10T12:41:49.949Z,18.88
2022-11-10T12:44:37.580Z,18.89
2022-11-10T12:47:10.086Z,18.82
2022-11-10T12:49:41.826Z,18.71
2022-11-10T12:52:22.552Z,18.64
2022-11-10T12:54:49.838Z,18.53
2022-11-10T12:57:27.581Z,18.45
2022-11-10T12:59:59.863Z,18.36
2022-11-10T13:02:44.644Z,18.24
2022-11-10T13:05:14.682Z,18.18
2022-11-10T13:07:44.376Z,18.11
2022-11-10T13:10:28.829Z,18.07
2022-11-10T13:13:22.623Z,17.93
2022-11-10T13:15:58.513Z,17.80
2022-11-10T13:18:31.354Z,17.67
2022-11-10T13:21:00.221Z,17.52
2022-11-10T13:23:29.907Z,17.42
2022-11-10T13:26:05.993Z,17.30
2022-11-10T13:28:48.222Z,17.14
2022-11-10T13:31:41.606Z,17.14
2022-11-10T13:34:08.407Z,17.09
2022-11-10T13:36:43.463Z,17.00
2022-11-10T13:39:32.942Z,16.94
2022-11-10T13:42:09.817Z,16.92
2022-11-10T13:44:39.131Z,16.93
2022-11-10T13:47:09.318Z,16.87
2022-11-10T13:50:08.564Z,16.79
2022-11-10T13:53:01.844Z,16.76
2022-11-10T13:56:02.274Z,16.74
2022-11-10T13:58:32.701Z,16.69
2022-11-10T14:01:18.074Z,16.62
2022-11-10T14:03:48.007Z,16.58
2022-11-10T14:06:44.543Z,16.57
2022-11-10T14:09:43.501Z,16.50
2022-11-10T14:12:33.519Z,16.40
2022-11-10T14:15:07.836Z,16.29
2022-11-10T14:17:41.213Z,16.23
2022-11-10T14:20:21.378Z,16.17
2022-11-10T14:22:50.298Z,16.09
2022-11-10T14:25:47.184Z,16.03
2022-11-10T14:28:45.151Z,15.97
2022-11-10T14:31:25.220Z,15.76
2022-11-10T14:33:57.579Z,15.71
2022-11-10T14:36:25.466Z,15.60
2022-11-10T14:38:53.246Z,15.44
2022-11-10T14:41:21.411Z,15.30
2022-11-10T14:44:25.054Z,15.19
2022-11-10T14:46:53.245Z,15.16
2022-11-10T14:49:25.276Z,15.02
2022-11-10T14:51:58.029Z,14.85
2022-11-10T14:54:28.648Z,14.63
2022-11-10T14:56:57.147Z,14.46
2022-11-10T14:59:26.175Z,14.24
2022-11-10T15:01:56.732Z,14.05
2022-11-10T15:04:29.486Z,13.86
2022-11-10T15:06:58.079Z,13.67
2022-11-10T15:09:28.921Z,13.49
2022-11-10T15:12:38.167Z,13.27
2022-11-10T15:15:19.265Z,13.05
2022-11-10T15:17:50.210Z,12.81
2022-11-10T15:20:40.066Z,12.62
2022-11-10T15:23:22.991Z,12.45
2022-11-10T15:25:53.164Z,12.24
2022-11-10T15:28:34.259Z,12.10
2022-11-10T15:31:04.784Z,11.93
2022-11-10T15:33:35.220Z,11.80
2022-11-10T15:36:28.153Z,11.54
2022-11-10T15:39:23.951Z,11.45
2022-11-10T15:41:58.439Z,11.27
2022-11-10T15:44:30.000Z,11.13
2022-11-10T15:46:59.372Z,10.98
2022-11-10T15:49:30.741Z,10.88
2022-11-10T15:52:14.169Z,10.79
2022-11-10T15:54:41.500Z,10.67
2022-11-10T15:57:12.261Z,10.47
2022-11-10T15:59:39.311Z,10.38
2022-11-10T16:02:22.490Z,10.30
2022-11-10T16:04:53.399Z,10.23
2022-11-10T16:07:24.370Z,10.20
2022-11-10T16:09:51.266Z,10.19
2022-11-10T16:12:22.955Z,10.19
2022-11-10T16:14:53.366Z,10.12
2022-11-10T16:17:21.168Z,10.03
2022-11-10T16:19:48.424Z,9.88
2022-11-10T16:22:15.450Z,9.84
2022-11-10T16:24:42.643Z,9.78
2022-11-10T16:27:14.567Z,9.70
2022-11-10T16:29:42.994Z,9.65
2022-11-10T16:32:11.826Z,9.61
2022-11-10T16:34:38.949Z,9.55
2022-11-10T16:37:06.162Z,9.52
2022-11-10T16:39:33.674Z,9.45
2022-11-10T16:42:00.705Z,9.41
2022-11-10T16:44:27.751Z,9.39
2022-11-10T16:46:57.459Z,9.29
2022-11-10T16:49:31.778Z,9.15
2022-11-10T16:51:59.554Z,9.10
2022-11-10T16:54:26.588Z,9.01
2022-11-10T16:56:53.522Z,8.89
2022-11-10T16:59:20.672Z,8.86
2022-11-10T17:01:49.159Z,8.81
2022-11-10T17:04:16.324Z,8.80
2022-11-10T17:06:43.624Z,8.78
2022-11-10T17:09:22.274Z,8.74
2022-11-10T17:11:49.427Z,8.74
2022-11-10T17:14:16.913Z,8.71
2022-11-10T17:16:46.798Z,8.65
2022-11-10T17:19:21.254Z,8.65
2022-11-10T17:21:49.983Z,8.55
2022-11-10T17:24:17.585Z,8.45
2022-11-10T17:26:45.166Z,8.41
2022-11-10T17:29:19.627Z,8.37
2022-11-10T17:31:46.737Z,8.34
2022-11-10T17:34:14.026Z,8.31
2022-11-10T17:36:40.966Z,8.29
2022-11-10T17:39:14.734Z,8.25
2022-11-10T17:41:42.236Z,8.24
2022-11-10T17:44:18.414Z,8.21
2022-11-10T17:46:45.423Z,8.13
2022-11-10T17:49:12.510Z,8.09
2022-11-10T17:51:40.869Z,8.02
2022-11-10T17:54:13.845Z,7.98
2022-11-10T17:56:42.525Z,7.93
2022-11-10T17:59:09.800Z,7.83
2022-11-10T18:01:36.976Z,7.81
2022-11-10T18:04:04.161Z,7.71
2022-11-10T18:06:31.677Z,7.71
2022-11-10T18:08:58.576Z,7.71
2022-11-10T18:11:25.856Z,7.67
2022-11-10T18:13:52.730Z,7.67
2022-11-10T18:16:19.728Z,7.63
2022-11-10T18:18:46.633Z,7.61
2022-11-10T18:21:13.778Z,7.58
2022-11-10T18:23:44.519Z,7.52
2022-11-10T18:26:11.957Z,7.46
2022-11-10T18:28:40.146Z,7.38
2022-11-10T18:31:10.979Z,7.39
2022-11-10T18:33:38.191Z,7.29
2022-11-10T18:36:05.411Z,7.26
2022-11-10T18:38:32.666Z,7.26
2022-11-10T18:41:22.643Z,7.25
2022-11-10T18:43:49.538Z,7.26
2022-11-10T18:46:35.304Z,7.23
2022-11-10T18:49:02.591Z,7.22
2022-11-10T18:51:29.645Z,7.17
2022-11-10T18:53:56.644Z,7.08
2022-11-10T18:56:23.780Z,7.07
2022-11-10T18:58:56.411Z,7.06
2022-11-10T19:01:24.231Z,7.10
2022-11-10T19:03:51.673Z,7.08
2022-11-10T19:06:18.917Z,7.03
2022-11-10T19:08:46.266Z,6.99
2022-11-10T19:11:16.527Z,6.93
2022-11-10T19:13:44.166Z,6.91
2022-11-10T19:18:57.950Z,6.80
2022-11-10T19:21:28.539Z,6.78
2022-11-10T19:23:58.801Z,6.74
2022-11-10T19:26:27.285Z,6.66
2022-11-10T19:28:57.269Z,6.65
2022-11-10T19:31:24.959Z,6.69
2022-11-10T19:33:55.057Z,6.65
2022-11-10T19:36:26.657Z,6.63
2022-11-10T19:38:57.595Z,6.57
2022-11-10T19:41:30.294Z,6.55
2022-11-10T19:43:59.773Z,6.46
2022-11-10T19:46:29.137Z,6.44
2022-11-10T19:48:57.419Z,6.40
2022-11-10T19:51:25.709Z,6.43
2022-11-10T19:53:58.865Z,6.41
2022-11-10T19:56:31.651Z,6.37
2022-11-10T19:58:59.667Z,6.35
2022-11-10T20:01:27.219Z,6.32
2022-11-10T20:03:54.953Z,6.34
2022-11-10T20:06:23.348Z,6.27
2022-11-10T20:08:50.627Z,6.24
2022-11-10T20:11:23.863Z,6.26
2022-11-10T20:13:54.949Z,6.25
2022-11-10T20:16:22.608Z,6.22
2022-11-10T20:18:52.595Z,6.14
2022-11-10T20:21:23.803Z,6.13
2022-11-10T20:23:55.826Z,6.16
2022-11-10T20:26:24.004Z,6.14
2022-11-10T20:28:51.080Z,6.13
2022-11-10T20:31:24.576Z,6.13
2022-11-10T20:33:53.386Z,6.06
2022-11-10T20:36:24.120Z,6.04
2022-11-10T20:38:52.002Z,6.04
2022-11-10T20:41:21.440Z,5.99
2022-11-10T20:43:48.427Z,5.93
2022-11-10T20:49:05.243Z,5.88
2022-11-10T20:51:32.100Z,5.85
2022-11-10T20:54:01.010Z,5.81
2022-11-10T20:56:29.925Z,5.80
2022-11-10T20:58:57.956Z,5.81
2022-11-10T21:01:25.607Z,5.78
2022-11-10T21:03:53.564Z,5.77
2022-11-10T21:06:20.855Z,5.75
2022-11-10T21:08:47.937Z,5.74
2022-11-10T21:11:36.167Z,5.69
2022-11-10T21:14:03.267Z,5.69
2022-11-10T21:16:30.226Z,5.66
2022-11-10T21:18:57.287Z,5.67
2022-11-10T21:21:34.841Z,5.65
2022-11-10T21:24:06.241Z,5.61
2022-11-10T21:26:34.852Z,5.54
2022-11-10T21:29:02.851Z,5.55
2022-11-10T21:31:31.671Z,5.51
2022-11-10T21:33:59.246Z,5.48
2022-11-10T21:36:29.998Z,5.45
2022-11-10T21:38:58.302Z,5.41
2022-11-10T21:41:26.432Z,5.39
2022-11-10T21:43:53.725Z,5.38
2022-11-10T21:46:21.084Z,5.36
2022-11-10T21:48:50.089Z,5.35
2022-11-10T21:51:17.957Z,5.33
2022-11-10T21:53:44.823Z,5.33
2022-11-10T21:56:12.704Z,5.32
2022-11-10T21:58:40.308Z,5.36
2022-11-10T22:01:13.260Z,5.35
2022-11-10T22:03:40.821Z,5.30
2022-11-10T22:06:13.523Z,5.26
2022-11-10T22:08:42.119Z,5.25
2022-11-10T22:11:32.972Z,5.30
2022-11-10T22:14:15.690Z,5.28
2022-11-10T22:17:06.945Z,5.27
2022-11-10T22:19:35.577Z,5.25
2022-11-10T22:22:04.230Z,5.22
2022-11-10T22:24:31.713Z,5.21
2022-11-10T22:27:00.944Z,5.22
2022-11-10T22:29:34.361Z,5.19
2022-11-10T22:32:04.678Z,5.12
2022-11-10T22:34:31.740Z,5.14
2022-11-10T22:36:59.802Z,5.13
2022-11-10T22:39:46.765Z,5.11
2022-11-10T22:42:32.454Z,5.15
2022-11-10T22:44:59.572Z,5.04
2022-11-10T22:47:46.843Z,5.06
2022-11-10T22:50:13.875Z,5.06
2022-11-10T22:52:41.141Z,5.05
2022-11-10T22:55:08.336Z,5.05
2022-11-10T22:57:35.221Z,4.98
2022-11-10T23:00:02.368Z,5.05
2022-11-10T23:02:29.481Z,5.06
2022-11-10T23:04:56.517Z,5.02
2022-11-10T23:07:26.457Z,5.05
2022-11-10T23:09:53.563Z,5.02
2022-11-10T23:12:20.519Z,4.97
2022-11-10T23:14:47.427Z,4.92
2022-11-10T23:17:14.362Z,4.90
2022-11-10T23:19:41.541Z,4.87
2022-11-10T23:22:08.470Z,4.83
2022-11-10T23:24:35.853Z,4.86
2022-11-10T23:27:02.747Z,4.87
2022-11-10T23:29:29.715Z,4.87
2022-11-10T23:31:56.673Z,4.90
2022-11-10T23:34:23.535Z,4.88
2022-11-10T23:36:50.568Z,4.87
2022-11-10T23:39:17.462Z,4.83
2022-11-10T23:41:44.431Z,4.82
2022-11-10T23:44:11.462Z,4.76
2022-11-10T23:46:38.569Z,4.70
2022-11-10T23:49:05.561Z,4.73
2022-11-10T23:51:32.547Z,4.70
2022-11-10T23:53:59.620Z,4.68
2022-11-10T23:56:26.535Z,4.67
2022-11-10T23:58:53.586Z,4.67
